createdAt,value
2019-04-10T00:01:38.261Z,101775.87
2019-04-10T00:04:28.142Z,101773.81
2019-04-10T00:07:19.456Z,101769.49
2019-04-10T00:10:09.739Z,101773.58
2019-04-10T00:13:00.409Z,101770.98
2019-04-10T00:15:50.813Z,101765.36
2019-04-10T00:18:40.427Z,101772.59
2019-04-10T00:21:29.739Z,101774.40
2019-04-10T00:24:19.864Z,101780.76
2019-04-10T00:27:10.389Z,101780.91
2019-04-10T00:30:00.668Z,101788.55
2019-04-10T00:32:50.742Z,101785.56
2019-04-10T00:35:40.021Z,101784.73
2019-04-10T00:38:29.584Z,101785.73
2019-04-10T00:41:19.751Z,101778.30
2019-04-10T00:44:09.191Z,101781.92
2019-04-10T00:46:59.033Z,101774.92
2019-04-10T00:49:48.580Z,101783.44
2019-04-10T00:52:38.618Z,101779.52
2019-04-10T00:55:28.823Z,101783.60
2019-04-10T00:58:18.965Z,101777.51
2019-04-10T01:01:09.638Z,101781.16
2019-04-10T01:04:00.201Z,101775.02
2019-04-10T01:06:50.508Z,101789.78
2019-04-10T01:09:39.877Z,101781.41
2019-04-10T01:12:29.795Z,101788.14
2019-04-10T01:15:19.026Z,101784.62
2019-04-10T01:18:09.193Z,101778.95
2019-04-10T01:20:59.042Z,101782.63
2019-04-10T01:23:48.938Z,101776.96
2019-04-10T01:26:39.175Z,101785.02
2019-04-10T01:29:29.231Z,101791.33
2019-04-10T01:32:19.445Z,101787.38
2019-04-10T01:35:09.900Z,101791.88
2019-04-10T01:38:01.454Z,101788.00
2019-04-10T01:40:51.169Z,101784.13
2019-04-10T01:43:41.234Z,101788.16
2019-04-10T01:46:33.634Z,101790.47
2019-04-10T01:49:22.139Z,101791.84
2019-04-10T01:52:12.950Z,101788.42
2019-04-10T01:55:16.035Z,101800.86
2019-04-10T01:57:58.886Z,101797.85
2019-04-10T02:00:57.195Z,101796.63
2019-04-10T02:03:46.596Z,101798.47
2019-04-10T02:06:35.767Z,101794.95
2019-04-10T02:09:25.741Z,101788.45
2019-04-10T02:12:15.017Z,101799.55
2019-04-10T02:15:04.858Z,101792.58
2019-04-10T02:17:55.041Z,101792.61
2019-04-10T02:20:45.204Z,101799.33
2019-04-10T02:23:34.651Z,101798.57
2019-04-10T02:26:23.821Z,101801.70
2019-04-10T02:29:13.909Z,101805.75
2019-04-10T02:32:04.161Z,101800.04
2019-04-10T02:34:55.132Z,101798.78
2019-04-10T02:37:44.870Z,101811.23
2019-04-10T02:40:34.754Z,101798.48
2019-04-10T02:43:23.820Z,101807.81
2019-04-10T02:46:13.363Z,101808.78
2019-04-10T02:49:04.162Z,101811.93
2019-04-10T02:51:55.008Z,101809.37
2019-04-10T02:54:46.030Z,101818.27
2019-04-10T02:57:37.320Z,101814.75
2019-04-10T03:00:28.292Z,101812.59
2019-04-10T03:03:19.916Z,101814.38
2019-04-10T03:06:11.377Z,101819.75
2019-04-10T03:09:14.616Z,101811.42
2019-04-10T03:11:51.946Z,101818.98
2019-04-10T03:14:44.946Z,101815.95
2019-04-10T03:17:33.256Z,101821.70
2019-04-10T03:20:24.511Z,101818.67
2019-04-10T03:23:13.580Z,101823.58
2019-04-10T03:26:03.544Z,101824.11
2019-04-10T03:28:56.263Z,101826.79
2019-04-10T03:31:45.367Z,101827.75
2019-04-10T03:34:40.593Z,101824.23
2019-04-10T03:37:28.523Z,101825.61
2019-04-10T03:40:18.127Z,101830.55
2019-04-10T03:43:07.718Z,101837.67
2019-04-10T03:45:57.290Z,101838.16
2019-04-10T03:48:47.320Z,101835.53
2019-04-10T03:51:37.304Z,101840.06
2019-04-10T03:54:28.052Z,101835.64
2019-04-10T03:57:20.562Z,101839.25
2019-04-10T04:00:10.319Z,101836.67
2019-04-10T04:03:00.239Z,101840.69
2019-04-10T04:05:50.980Z,101842.47
2019-04-10T04:08:40.268Z,101850.05
2019-04-10T04:11:30.015Z,101849.64
2019-04-10T04:14:19.808Z,101856.73
2019-04-10T04:17:09.614Z,101850.17
2019-04-10T04:19:58.868Z,101861.25
2019-04-10T04:22:49.480Z,101854.23
2019-04-10T04:25:40.555Z,101863.57
2019-04-10T04:28:30.658Z,101861.34
2019-04-10T04:31:19.788Z,101865.39
2019-04-10T04:34:09.996Z,101865.41
2019-04-10T04:37:00.410Z,101877.80
2019-04-10T04:39:49.966Z,101876.96
2019-04-10T04:42:40.709Z,101890.27
2019-04-10T04:45:30.252Z,101892.05
2019-04-10T04:48:19.487Z,101898.30
2019-04-10T04:51:09.587Z,101892.98
2019-04-10T04:53:59.109Z,101896.60
2019-04-10T04:56:48.806Z,101895.77
2019-04-10T04:59:38.606Z,101901.09
2019-04-10T05:02:28.241Z,101902.44
2019-04-10T05:05:18.497Z,101903.38
2019-04-10T05:08:08.424Z,101903.82
2019-04-10T05:10:58.238Z,101920.23
2019-04-10T05:13:48.974Z,101914.95
2019-04-10T05:16:38.226Z,101921.14
2019-04-10T05:19:27.600Z,101929.59
2019-04-10T05:22:16.880Z,101930.48
2019-04-10T05:25:05.691Z,101926.08
2019-04-10T05:27:55.354Z,101932.73
2019-04-10T05:30:45.282Z,101940.68
2019-04-10T05:33:36.616Z,101936.73
2019-04-10T05:36:25.996Z,101946.45
2019-04-10T05:39:15.389Z,101943.84
2019-04-10T05:42:04.328Z,101949.13
2019-04-10T05:44:53.761Z,101950.06
2019-04-10T05:47:42.778Z,101956.26
2019-04-10T05:50:32.112Z,101961.98
2019-04-10T05:53:22.550Z,101969.05
2019-04-10T05:56:12.348Z,101963.78
2019-04-10T05:59:03.006Z,101972.21
2019-04-10T06:01:52.821Z,101972.21
2019-04-10T06:04:41.985Z,101971.30
2019-04-10T06:07:31.550Z,101970.85
2019-04-10T06:10:21.686Z,101979.65
2019-04-10T06:13:12.816Z,101983.16
2019-04-10T06:16:03.530Z,101980.05
2019-04-10T06:18:53.609Z,101982.28
2019-04-10T06:21:43.981Z,101982.66
2019-04-10T06:24:33.241Z,101981.28
2019-04-10T06:27:22.364Z,101979.49
2019-04-10T06:30:12.141Z,101982.97
2019-04-10T06:33:02.270Z,101982.45
2019-04-10T06:35:53.054Z,101981.52
2019-04-10T06:38:43.333Z,101982.34
2019-04-10T06:41:33.303Z,101983.16
2019-04-10T06:44:23.013Z,101989.70
2019-04-10T06:47:12.578Z,101994.89
2019-04-10T06:50:02.563Z,101998.83
2019-04-10T06:52:54.833Z,102005.35
2019-04-10T06:55:44.883Z,101995.09
2019-04-10T06:58:34.671Z,101999.39
2019-04-10T07:01:26.103Z,101999.30
2019-04-10T07:04:15.496Z,102004.47
2019-04-10T07:07:10.927Z,102009.66
2019-04-10T07:09:57.565Z,102005.12
2019-04-10T07:12:47.850Z,102001.01
2019-04-10T07:15:37.792Z,102002.20
2019-04-10T07:18:28.394Z,102002.97
2019-04-10T07:21:17.643Z,102004.16
2019-04-10T07:24:09.516Z,102010.26
2019-04-10T07:27:02.248Z,102012.29
2019-04-10T07:29:50.856Z,102011.66
2019-04-10T07:32:43.333Z,102016.83
2019-04-10T07:35:33.716Z,102018.44
2019-04-10T07:38:21.715Z,102024.01
2019-04-10T07:41:19.338Z,102024.25
2019-04-10T07:44:03.798Z,102021.87
2019-04-10T07:46:54.916Z,102027.03
2019-04-10T07:49:46.202Z,102032.16
2019-04-10T07:52:35.873Z,102025.77
2019-04-10T07:55:25.684Z,102035.74
2019-04-10T07:58:15.286Z,102031.58
2019-04-10T08:01:05.315Z,102026.90
2019-04-10T08:03:55.536Z,102029.77
2019-04-10T08:06:46.758Z,102028.69
2019-04-10T08:09:36.197Z,102039.62
2019-04-10T08:12:37.576Z,102040.25
2019-04-10T08:15:17.360Z,102030.19
2019-04-10T08:18:06.640Z,102033.94
2019-04-10T08:20:57.264Z,102032.37
2019-04-10T08:23:48.286Z,102029.38
2019-04-10T08:26:38.816Z,102031.73
2019-04-10T08:29:28.263Z,102039.01
2019-04-10T08:32:18.205Z,102031.09
2019-04-10T08:35:09.107Z,102032.67
2019-04-10T08:37:59.231Z,102043.36
2019-04-10T08:40:48.559Z,102042.52
2019-04-10T08:43:37.612Z,102041.22
2019-04-10T08:46:26.664Z,102042.66
2019-04-10T08:49:16.285Z,102045.73
2019-04-10T08:52:06.273Z,102039.13
2019-04-10T08:54:57.419Z,102047.47
2019-04-10T08:57:47.084Z,102043.48
2019-04-10T09:00:36.945Z,102037.17
2019-04-10T09:03:26.765Z,102051.80
2019-04-10T09:06:17.538Z,102049.91
2019-04-10T09:09:08.127Z,102054.27
2019-04-10T09:11:57.837Z,102057.28
2019-04-10T09:14:47.621Z,102051.80
2019-04-10T09:17:37.733Z,102055.27
2019-04-10T09:20:26.850Z,102058.34
2019-04-10T09:23:26.519Z,102054.06
2019-04-10T09:26:08.027Z,102050.27
2019-04-10T09:28:58.883Z,102059.98
2019-04-10T09:31:49.001Z,102052.61
2019-04-10T09:34:40.090Z,102044.30
2019-04-10T09:37:31.012Z,102047.60
2019-04-10T09:40:22.350Z,102045.18
2019-04-10T09:43:15.687Z,102053.06
2019-04-10T09:46:06.400Z,102048.45
2019-04-10T09:48:56.188Z,102041.59
2019-04-10T09:51:46.224Z,102040.06
2019-04-10T09:54:38.233Z,102052.73
2019-04-10T09:57:49.752Z,102051.08
2019-04-10T10:00:41.257Z,102047.34
2019-04-10T10:03:30.799Z,102043.46
2019-04-10T10:06:29.574Z,102036.93
2019-04-10T10:09:14.820Z,102031.98
2019-04-10T10:12:04.507Z,102024.64
2019-04-10T10:14:54.703Z,102045.42
2019-04-10T10:17:44.548Z,102039.27
2019-04-10T10:20:35.741Z,102047.20
2019-04-10T10:23:27.598Z,102047.14
2019-04-10T10:26:17.658Z,102042.36
2019-04-10T10:29:09.324Z,102043.40
2019-04-10T10:32:00.408Z,102042.80
2019-04-10T10:34:50.558Z,102047.33
2019-04-10T10:37:42.931Z,102039.05
2019-04-10T10:40:32.369Z,102038.53
2019-04-10T10:43:22.454Z,102039.42
2019-04-10T10:46:13.454Z,102041.25
2019-04-10T10:49:02.935Z,102054.61
2019-04-10T10:51:53.323Z,102049.00
2019-04-10T10:54:47.097Z,102046.39
2019-04-10T10:57:37.539Z,102041.38
2019-04-10T11:00:29.311Z,102042.22
2019-04-10T11:03:22.448Z,102039.27
2019-04-10T11:06:12.948Z,102039.13
2019-04-10T11:09:08.343Z,102035.54
2019-04-10T11:11:58.498Z,102038.67
2019-04-10T11:14:48.335Z,102029.34
2019-04-10T11:17:38.533Z,102022.31
2019-04-10T11:20:28.498Z,102042.43
2019-04-10T11:23:18.239Z,102037.69
2019-04-10T11:26:08.479Z,102047.70
2019-04-10T11:28:58.113Z,102048.71
2019-04-10T11:31:47.568Z,102041.25
2019-04-10T11:34:36.639Z,102045.03
2019-04-10T11:37:36.683Z,102050.56
2019-04-10T11:40:18.047Z,102051.48
2019-04-10T11:43:07.872Z,102040.21
2019-04-10T11:46:01.737Z,102040.14
2019-04-10T11:48:49.306Z,102044.88
2019-04-10T11:51:39.030Z,102040.63
2019-04-10T11:54:30.428Z,102038.87
2019-04-10T11:57:20.409Z,102038.46
2019-04-10T12:03:08.321Z,102040.88
2019-04-10T12:05:57.731Z,102038.70
2019-04-10T12:09:13.273Z,102050.64
2019-04-10T12:11:43.152Z,102048.88
2019-04-10T12:14:39.578Z,102037.95
2019-04-10T12:17:38.146Z,102047.26
2019-04-10T12:20:33.267Z,102050.03
2019-04-10T12:23:25.132Z,102054.44
2019-04-10T12:26:14.473Z,102049.39
2019-04-10T12:29:06.745Z,102060.63
2019-04-10T12:31:56.680Z,102057.13
2019-04-10T12:34:48.687Z,102045.29
2019-04-10T12:37:41.175Z,102050.20
2019-04-10T12:40:37.945Z,102060.97
2019-04-10T12:43:34.796Z,102056.80
2019-04-10T12:46:24.826Z,102059.72
2019-04-10T12:49:17.081Z,102056.51
2019-04-10T12:52:07.861Z,102067.63
2019-04-10T12:54:58.322Z,102053.56
2019-04-10T12:57:47.643Z,102060.77
2019-04-10T13:00:36.792Z,102056.19
2019-04-10T13:03:27.212Z,102047.66
2019-04-10T13:06:17.968Z,102056.20
2019-04-10T13:09:12.567Z,102062.02
2019-04-10T13:12:00.630Z,102054.33
2019-04-10T13:14:50.714Z,102058.29
2019-04-10T13:17:40.777Z,102052.78
2019-04-10T13:20:29.856Z,102061.42
2019-04-10T13:23:19.128Z,102054.73
2019-04-10T13:26:10.422Z,102058.70
2019-04-10T13:28:59.963Z,102053.50
2019-04-10T13:31:49.739Z,102056.22
2019-04-10T13:34:39.664Z,102058.09
2019-04-10T13:37:29.707Z,102050.13
2019-04-10T13:40:19.454Z,102048.16
2019-04-10T13:43:09.556Z,102053.99
2019-04-10T13:46:00.446Z,102042.73
2019-04-10T13:48:50.069Z,102051.16
2019-04-10T13:51:39.310Z,102046.44
2019-04-10T13:54:28.434Z,102048.55
2019-04-10T13:57:18.155Z,102042.09
2019-04-10T14:00:11.265Z,102048.05
2019-04-10T14:03:01.741Z,102049.28
2019-04-10T14:05:51.212Z,102042.34
2019-04-10T14:09:04.695Z,102043.23
2019-04-10T14:11:33.891Z,102040.13
2019-04-10T14:14:24.336Z,102034.56
2019-04-10T14:17:14.237Z,102043.46
2019-04-10T14:20:04.680Z,102045.45
2019-04-10T14:23:02.059Z,102044.70
2019-04-10T14:26:22.589Z,102048.68
2019-04-10T14:29:16.307Z,102050.77
2019-04-10T14:32:09.161Z,102065.38
2019-04-10T14:34:59.033Z,102062.91
2019-04-10T14:37:48.345Z,102060.56
2019-04-10T14:40:37.997Z,102049.30
2019-04-10T14:43:28.732Z,102059.94
2019-04-10T14:46:18.795Z,102061.14
2019-04-10T14:49:09.024Z,102058.80
2019-04-10T14:51:58.922Z,102054.33
2019-04-10T14:54:48.662Z,102063.52
2019-04-10T14:57:39.115Z,102055.59
2019-04-10T15:00:36.962Z,102069.09
2019-04-10T15:03:26.526Z,102061.77
2019-04-10T15:06:15.476Z,102062.38
2019-04-10T15:09:19.887Z,102068.23
2019-04-10T15:11:59.358Z,102062.16
2019-04-10T15:14:49.882Z,102061.02
2019-04-10T15:17:40.280Z,102061.90
2019-04-10T15:20:29.706Z,102060.41
2019-04-10T15:23:18.831Z,102063.64
2019-04-10T15:26:08.431Z,102075.13
2019-04-10T15:28:58.308Z,102061.14
2019-04-10T15:31:48.096Z,102073.52
2019-04-10T15:34:37.484Z,102073.89
2019-04-10T15:37:27.594Z,102070.19
2019-04-10T15:40:22.803Z,102074.65
2019-04-10T15:43:08.448Z,102078.73
2019-04-10T15:45:57.804Z,102079.96
2019-04-10T15:48:47.416Z,102072.14
2019-04-10T15:51:36.976Z,102078.95
2019-04-10T15:54:26.361Z,102073.03
2019-04-10T15:57:16.466Z,102072.89
2019-04-10T16:00:09.194Z,102081.77
2019-04-10T16:02:58.999Z,102082.03
2019-04-10T16:05:48.531Z,102076.55
2019-04-10T16:08:38.592Z,102082.74
2019-04-10T16:11:38.190Z,102084.70
2019-04-10T16:14:30.204Z,102094.72
2019-04-10T16:17:52.395Z,102090.75
2019-04-10T16:20:43.103Z,102090.13
2019-04-10T16:23:37.769Z,102099.21
2019-04-10T16:26:27.618Z,102097.94
2019-04-10T16:29:18.191Z,102108.42
2019-04-10T16:32:08.991Z,102113.68
2019-04-10T16:34:59.020Z,102113.64
2019-04-10T16:37:49.435Z,102120.91
2019-04-10T16:40:40.410Z,102130.77
2019-04-10T16:43:30.637Z,102123.91
2019-04-10T16:46:21.848Z,102124.56
2019-04-10T16:49:11.301Z,102142.14
2019-04-10T16:52:00.881Z,102133.59
2019-04-10T16:54:51.431Z,102143.02
2019-04-10T16:57:41.479Z,102143.89
2019-04-10T17:00:31.212Z,102155.39
2019-04-10T17:03:21.817Z,102152.56
2019-04-10T17:06:12.300Z,102146.61
2019-04-10T17:09:03.175Z,102146.30
2019-04-10T17:11:53.832Z,102151.23
2019-04-10T17:14:43.906Z,102158.00
2019-04-10T17:17:33.358Z,102161.20
2019-04-10T17:20:26.635Z,102165.61
2019-04-10T17:23:16.493Z,102154.14
2019-04-10T17:26:06.595Z,102166.97
2019-04-10T17:28:56.654Z,102177.34
2019-04-10T17:31:46.887Z,102170.80
2019-04-10T17:34:35.918Z,102191.92
2019-04-10T17:37:27.027Z,102188.92
2019-04-10T17:40:27.347Z,102191.62
2019-04-10T17:43:08.562Z,102193.47
2019-04-10T17:45:58.664Z,102195.73
2019-04-10T17:48:49.645Z,102185.73
2019-04-10T17:51:39.745Z,102192.87
2019-04-10T17:54:29.839Z,102203.89
2019-04-10T17:57:21.076Z,102201.12
2019-04-10T18:00:21.272Z,102204.06
2019-04-10T18:03:10.950Z,102211.79
2019-04-10T18:06:01.384Z,102211.40
2019-04-10T18:08:51.477Z,102211.00
2019-04-10T18:11:41.486Z,102216.42
2019-04-10T18:14:31.366Z,102217.50
2019-04-10T18:17:21.146Z,102219.45
2019-04-10T18:20:11.573Z,102225.47
2019-04-10T18:23:01.041Z,102228.65
2019-04-10T18:25:51.878Z,102228.21
2019-04-10T18:28:43.581Z,102243.02
2019-04-10T18:31:32.957Z,102245.66
2019-04-10T18:34:22.690Z,102250.19
2019-04-10T18:37:18.690Z,102250.23
2019-04-10T18:40:07.555Z,102253.40
2019-04-10T18:43:00.690Z,102256.05
2019-04-10T18:46:06.126Z,102259.65
2019-04-10T18:48:49.521Z,102259.64
2019-04-10T18:51:40.386Z,102266.33
2019-04-10T18:54:36.003Z,102264.00
2019-04-10T18:57:22.040Z,102269.34
2019-04-10T19:00:44.582Z,102267.06
2019-04-10T19:03:58.265Z,102286.58
2019-04-10T19:06:53.375Z,102286.08
2019-04-10T19:09:45.297Z,102292.71
2019-04-10T19:12:34.824Z,102295.77
2019-04-10T19:15:25.492Z,102297.41
2019-04-10T19:18:15.375Z,102298.15
2019-04-10T19:21:05.295Z,102302.03
2019-04-10T19:23:55.643Z,102299.61
2019-04-10T19:26:45.435Z,102306.98
2019-04-10T19:29:35.548Z,102312.56
2019-04-10T19:32:31.146Z,102319.88
2019-04-10T19:35:21.407Z,102319.26
2019-04-10T19:38:13.410Z,102328.33
2019-04-10T19:41:04.663Z,102322.73
2019-04-10T19:43:54.947Z,102326.92
2019-04-10T19:46:45.928Z,102325.37
2019-04-10T19:49:37.053Z,102329.17
2019-04-10T19:52:28.555Z,102326.64
2019-04-10T19:55:18.272Z,102338.41
2019-04-10T19:58:08.148Z,102343.92
2019-04-10T20:00:59.417Z,102346.80
2019-04-10T20:03:50.054Z,102346.97
2019-04-10T20:06:40.740Z,102349.84
2019-04-10T20:09:30.532Z,102353.06
2019-04-10T20:12:20.324Z,102354.05
2019-04-10T20:15:10.011Z,102363.13
2019-04-10T20:18:00.104Z,102364.61
2019-04-10T20:20:51.155Z,102368.72
2019-04-10T20:23:41.139Z,102360.88
2019-04-10T20:26:31.461Z,102364.55
2019-04-10T20:29:21.221Z,102370.86
2019-04-10T20:32:12.612Z,102374.14
2019-04-10T20:35:02.494Z,102376.92
2019-04-10T20:37:51.289Z,102380.20
2019-04-10T20:40:42.187Z,102386.51
2019-04-10T20:43:32.683Z,102396.37
2019-04-10T20:46:22.843Z,102393.84
2019-04-10T20:49:12.137Z,102396.21
2019-04-10T20:52:01.972Z,102398.94
2019-04-10T20:54:51.723Z,102403.51
2019-04-10T20:57:40.854Z,102404.00
2019-04-10T21:00:34.504Z,102407.66
2019-04-10T21:03:25.281Z,102411.33
2019-04-10T21:06:15.505Z,102413.61
2019-04-10T21:09:07.589Z,102408.41
2019-04-10T21:12:03.833Z,102420.05
2019-04-10T21:14:48.576Z,102417.91
2019-04-10T21:17:37.558Z,102418.46
2019-04-10T21:20:27.248Z,102420.31
2019-04-10T21:23:17.159Z,102422.17
2019-04-10T21:26:06.573Z,102421.81
2019-04-10T21:28:55.818Z,102420.11
2019-04-10T21:32:03.305Z,102420.62
2019-04-10T21:34:51.617Z,102430.88
2019-04-10T21:37:40.893Z,102427.44
2019-04-10T21:40:30.670Z,102427.05
2019-04-10T21:43:21.466Z,102433.78
2019-04-10T21:46:12.106Z,102428.50
2019-04-10T21:49:01.664Z,102438.34
2019-04-10T21:51:51.623Z,102435.74
2019-04-10T21:54:49.752Z,102440.22
2019-04-10T21:57:32.034Z,102440.30
2019-04-10T22:00:36.909Z,102441.21
2019-04-10T22:03:25.964Z,102445.70
2019-04-10T22:06:49.654Z,102445.31
2019-04-10T22:09:52.930Z,102448.51
2019-04-10T22:12:46.597Z,102453.47
2019-04-10T22:15:37.435Z,102451.27
2019-04-10T22:18:27.466Z,102452.69
2019-04-10T22:21:18.598Z,102448.28
2019-04-10T22:24:09.406Z,102443.49
2019-04-10T22:26:58.758Z,102443.12
2019-04-10T22:29:47.913Z,102444.44
2019-04-10T22:32:37.272Z,102448.95
2019-04-10T22:35:25.963Z,102447.20
2019-04-10T22:38:15.455Z,102453.45
2019-04-10T22:41:17.398Z,102449.98
2019-04-10T22:43:57.076Z,102446.44
2019-04-10T22:46:47.050Z,102442.09
2019-04-10T22:49:37.337Z,102445.25
2019-04-10T22:52:26.936Z,102453.23
2019-04-10T22:55:17.690Z,102450.61
2019-04-10T22:58:08.624Z,102451.53
2019-04-10T23:00:58.033Z,102449.80
2019-04-10T23:03:48.019Z,102454.73
2019-04-10T23:06:37.554Z,102454.77
2019-04-10T23:09:28.468Z,102456.11
2019-04-10T23:12:18.265Z,102459.69
2019-04-10T23:15:09.143Z,102461.07
2019-04-10T23:17:59.242Z,102469.94
2019-04-10T23:20:50.195Z,102462.00
2019-04-10T23:23:41.101Z,102466.47
2019-04-10T23:26:31.207Z,102462.09
2019-04-10T23:29:20.792Z,102470.05
2019-04-10T23:32:11.161Z,102471.86
2019-04-10T23:35:01.257Z,102472.33
2019-04-10T23:37:51.192Z,102475.00
2019-04-10T23:40:41.007Z,102467.95
2019-04-10T23:43:31.447Z,102471.97
2019-04-10T23:46:22.221Z,102469.77
2019-04-10T23:49:11.408Z,102468.48
2019-04-10T23:52:01.297Z,102467.60
2019-04-10T23:54:51.385Z,102477.80
2019-04-10T23:57:41.190Z,102471.66
